Time;durP1;ratioP1;P1;durP2;ratioP2;P2;SDS_P1;SDS_P2;PMS_P1;PMS_P2;Temp;Humidity;BMP_temperature;BMP_pressure;BME280_temperature;BME280_humidity;BME280_pressure;Samples;Min_cycle;Max_cycle;Signal;HPM_P1;HPM_P2
2022/03/06 00:02:15;;;;;;;4.72;3.30;;;1.90;92.60;;;;;;5025164;28;20910;-68
2022/03/06 00:04:43;;;;;;;5.35;3.92;;;1.90;93.10;;;;;;5023933;28;20273;-67
2022/03/06 00:07:09;;;;;;;8.30;5.70;;;1.80;93.60;;;;;;5022431;28;20206;-68
2022/03/06 00:09:37;;;;;;;5.72;4.28;;;1.80;94.20;;;;;;5025679;28;20272;-67
2022/03/06 00:12:05;;;;;;;4.65;4.05;;;1.80;94.20;;;;;;5026311;28;20240;-68
2022/03/06 00:14:31;;;;;;;5.88;4.60;;;1.80;94.50;;;;;;5026919;28;20218;-68
2022/03/06 00:16:58;;;;;;;12.32;5.60;;;1.80;94.80;;;;;;5023365;28;20295;-68
2022/03/06 00:19:26;;;;;;;7.03;4.93;;;1.70;95.50;;;;;;5026120;28;20672;-69
2022/03/06 00:21:53;;;;;;;5.75;5.15;;;1.70;96.10;;;;;;5027404;28;20211;-68
2022/03/06 00:24:19;;;;;;;9.15;5.45;;;1.60;96.90;;;;;;5026897;28;20213;-67
2022/03/06 00:26:46;;;;;;;5.65;4.40;;;1.50;97.40;;;;;;5026854;28;20216;-68
2022/03/06 00:29:13;;;;;;;5.95;5.35;;;1.50;98.80;;;;;;5027088;28;20653;-68
2022/03/06 00:31:40;;;;;;;7.07;4.80;;;1.40;99.50;;;;;;5025234;28;20300;-68
2022/03/06 00:34:07;;;;;;;5.38;4.65;;;1.40;99.90;;;;;;5025921;28;20239;-67
2022/03/06 00:36:37;;;;;;;10.52;6.38;;;1.40;99.90;;;;;;5026200;28;20647;-67
2022/03/06 00:39:03;;;;;;;6.28;4.55;;;1.40;99.90;;;;;;5025691;28;20231;-68
2022/03/06 00:41:30;;;;;;;6.72;4.72;;;1.40;99.90;;;;;;5024121;28;20225;-68
2022/03/06 00:43:57;;;;;;;7.22;5.22;;;1.40;99.90;;;;;;5024097;28;20278;-68
2022/03/06 00:46:24;;;;;;;6.93;4.85;;;1.40;99.90;;;;;;5023652;28;20872;-67
2022/03/06 00:48:51;;;;;;;4.57;4.18;;;1.40;99.90;;;;;;5021793;28;20204;-68
2022/03/06 00:51:17;;;;;;;6.57;4.22;;;1.30;99.90;;;;;;5025770;28;20216;-66
2022/03/06 00:53:46;;;;;;;6.97;4.97;;;1.20;99.90;;;;;;5024472;28;20213;-68
2022/03/06 00:56:12;;;;;;;5.22;4.05;;;1.20;99.90;;;;;;5025956;28;20285;-67
2022/03/06 00:58:39;;;;;;;8.93;5.32;;;1.10;99.90;;;;;;5024622;28;20205;-68
2022/03/06 01:01:06;;;;;;;6.82;4.47;;;1.10;99.90;;;;;;5025651;28;20230;-68
2022/03/06 01:03:33;;;;;;;8.82;5.78;;;1.10;99.90;;;;;;5024522;28;20206;-68
2022/03/06 01:06:00;;;;;;;4.40;3.28;;;1.10;99.90;;;;;;5025526;28;20938;-68
2022/03/06 01:08:27;;;;;;;4.82;4.32;;;1.10;99.90;;;;;;5025614;28;20298;-67
2022/03/06 01:10:56;;;;;;;7.57;3.42;;;1.10;99.90;;;;;;5024272;28;20647;-68
2022/03/06 01:13:23;;;;;;;7.15;4.13;;;1.10;99.90;;;;;;5022972;28;20291;-67
2022/03/06 01:15:49;;;;;;;8.23;4.95;;;1.10;99.90;;;;;;5025494;28;20563;-67
2022/03/06 01:18:16;;;;;;;8.40;5.20;;;1.10;99.90;;;;;;5026046;28;20258;-66
2022/03/06 01:20:43;;;;;;;7.53;5.05;;;1.00;99.90;;;;;;5026501;28;20762;-68
2022/03/06 01:23:10;;;;;;;7.22;4.50;;;1.00;99.90;;;;;;5026621;28;20221;-68
2022/03/06 01:25:37;;;;;;;7.40;3.75;;;1.00;99.90;;;;;;5026562;28;20257;-68
2022/03/06 01:28:06;;;;;;;7.40;5.30;;;1.00;99.90;;;;;;5024996;28;20272;-67
2022/03/06 01:30:33;;;;;;;3.72;3.40;;;1.00;99.90;;;;;;5023538;28;20204;-67
2022/03/06 01:33:00;;;;;;;8.73;5.18;;;0.90;99.90;;;;;;5024272;28;20202;-67
2022/03/06 01:35:27;;;;;;;6.07;4.18;;;0.90;99.90;;;;;;5024005;28;20474;-68
2022/03/06 01:37:54;;;;;;;5.63;3.90;;;0.90;99.90;;;;;;5024791;28;20202;-68
2022/03/06 01:40:20;;;;;;;8.10;4.00;;;0.80;99.90;;;;;;5023799;28;20318;-67
2022/03/06 01:42:50;;;;;;;6.07;5.43;;;0.80;99.90;;;;;;5024316;28;20278;-68
2022/03/06 01:45:21;;;;;;;7.30;4.82;;;0.70;99.90;;;;;;5026227;28;20224;-67
2022/03/06 01:47:49;;;;;;;5.85;5.25;;;0.70;99.90;;;;;;5025187;28;20212;-69
2022/03/06 01:50:18;;;;;;;8.43;4.90;;;0.60;99.90;;;;;;5025359;28;20205;-66
2022/03/06 01:52:46;;;;;;;6.10;4.25;;;0.60;99.90;;;;;;5024554;28;20210;-69
2022/03/06 01:55:15;;;;;;;5.03;4.50;;;0.60;99.90;;;;;;5025388;28;20245;-69
2022/03/06 01:57:43;;;;;;;6.95;6.25;;;0.60;99.90;;;;;;5023324;28;20221;-68
2022/03/06 02:00:14;;;;;;;6.05;4.57;;;0.60;99.90;;;;;;5025929;28;20209;-68
2022/03/06 02:02:42;;;;;;;5.22;4.72;;;0.60;99.90;;;;;;5024102;28;20233;-66
2022/03/06 02:05:10;;;;;;;5.32;4.43;;;0.50;99.90;;;;;;5025432;28;20282;-66
2022/03/06 02:07:36;;;;;;;6.07;4.68;;;0.50;99.90;;;;;;5024970;28;20262;-67
2022/03/06 02:10:04;;;;;;;8.50;4.88;;;0.60;99.90;;;;;;5024162;28;20238;-67
2022/03/06 02:12:32;;;;;;;5.43;4.90;;;0.60;99.90;;;;;;5024894;28;20286;-66
2022/03/06 02:15:00;;;;;;;7.28;3.13;;;0.50;99.90;;;;;;5019115;28;20285;-68
2022/03/06 02:17:27;;;;;;;6.03;5.07;;;0.50;99.90;;;;;;5023311;28;20667;-68
2022/03/06 02:19:57;;;;;;;5.50;4.72;;;0.50;99.90;;;;;;5024164;28;20210;-67
2022/03/06 02:22:27;;;;;;;5.80;4.18;;;0.40;99.90;;;;;;5024505;28;20249;-67
2022/03/06 02:24:55;;;;;;;5.65;5.10;;;0.40;99.90;;;;;;5023895;28;20281;-66
2022/03/06 02:27:22;;;;;;;6.68;5.25;;;0.30;99.90;;;;;;5025625;28;20258;-68
2022/03/06 02:29:49;;;;;;;4.68;4.28;;;0.30;99.90;;;;;;5024807;28;20266;-68
2022/03/06 02:32:19;;;;;;;5.25;3.28;;;0.30;99.90;;;;;;5022190;28;20214;-66
2022/03/06 02:34:47;;;;;;;5.35;4.82;;;0.30;99.90;;;;;;5020533;28;20207;-66
2022/03/06 02:37:21;;;;;;;8.25;6.22;;;0.20;99.90;;;;;;5024822;28;20287;-69
2022/03/06 02:39:49;;;;;;;6.38;5.28;;;0.20;99.90;;;;;;5022431;28;20208;-68
2022/03/06 02:42:27;;;;;;;6.18;4.72;;;0.30;99.90;;;;;;5024276;28;20262;-66
2022/03/06 02:44:54;;;;;;;4.90;4.40;;;0.30;99.90;;;;;;5025642;28;20323;-68
2022/03/06 02:47:21;;;;;;;5.60;4.18;;;0.30;99.90;;;;;;5024896;28;20217;-69
2022/03/06 02:49:48;;;;;;;4.82;4.30;;;0.30;99.90;;;;;;5023299;28;20354;-66
2022/03/06 02:52:15;;;;;;;5.40;3.35;;;0.30;99.90;;;;;;5023452;28;20329;-67
2022/03/06 02:54:41;;;;;;;7.40;4.75;;;0.30;99.90;;;;;;5022580;28;20214;-67
2022/03/06 02:57:10;;;;;;;4.32;3.92;;;0.30;99.90;;;;;;5024186;28;20302;-67
2022/03/06 02:59:37;;;;;;;5.32;4.60;;;0.20;99.90;;;;;;5023954;28;20271;-66
2022/03/06 03:02:05;;;;;;;6.57;3.80;;;0.20;99.90;;;;;;5023496;28;20226;-67
2022/03/06 03:04:32;;;;;;;3.47;3.05;;;0.20;99.90;;;;;;5028103;28;20239;-68
2022/03/06 03:06:59;;;;;;;7.43;4.75;;;0.20;99.90;;;;;;5028870;28;20224;-68
2022/03/06 03:09:26;;;;;;;6.68;4.65;;;0.20;99.90;;;;;;5029201;28;20225;-67
2022/03/06 03:11:54;;;;;;;5.22;4.72;;;0.20;99.90;;;;;;5027108;28;20199;-67
2022/03/06 03:14:23;;;;;;;10.27;5.63;;;0.10;99.90;;;;;;5027560;28;20199;-66
2022/03/06 03:16:49;;;;;;;7.03;4.82;;;0.10;99.90;;;;;;5027554;28;20352;-67
2022/03/06 03:19:17;;;;;;;7.07;5.00;;;0.10;99.90;;;;;;5027555;28;20266;-67
2022/03/06 03:21:44;;;;;;;4.90;3.95;;;0.10;99.90;;;;;;5029152;28;20231;-68
2022/03/06 03:24:11;;;;;;;7.60;6.25;;;0.10;99.90;;;;;;5029596;28;20218;-68
2022/03/06 03:26:38;;;;;;;3.92;3.50;;;0.00;99.90;;;;;;5029881;28;20247;-68
2022/03/06 03:29:04;;;;;;;5.78;4.18;;;-0.10;99.90;;;;;;5028693;28;20233;-66
2022/03/06 03:31:32;;;;;;;9.50;5.68;;;-0.10;99.90;;;;;;5025836;28;20204;-69
2022/03/06 03:33:59;;;;;;;4.00;3.60;;;0.00;99.90;;;;;;5026849;28;20267;-68
2022/03/06 03:36:26;;;;;;;5.88;3.40;;;0.00;99.90;;;;;;5026220;28;20266;-66
2022/03/06 03:38:52;;;;;;;7.70;4.35;;;0.10;99.90;;;;;;5027259;28;20346;-66
2022/03/06 03:41:19;;;;;;;5.75;4.82;;;0.10;99.90;;;;;;5024993;28;20221;-67
2022/03/06 03:43:46;;;;;;;4.57;4.28;;;0.20;99.90;;;;;;5026256;28;20297;-68
2022/03/06 03:46:12;;;;;;;5.75;4.57;;;0.30;99.90;;;;;;5026591;28;20230;-65
2022/03/06 03:48:40;;;;;;;4.72;4.32;;;0.30;99.90;;;;;;5024925;28;20288;-68
2022/03/06 03:51:07;;;;;;;5.97;4.28;;;0.40;99.90;;;;;;5025994;28;20281;-68
2022/03/06 03:53:34;;;;;;;8.93;4.55;;;0.40;99.90;;;;;;5024867;28;20282;-67
2022/03/06 03:56:00;;;;;;;4.97;4.53;;;0.40;99.90;;;;;;5024158;28;20229;-67
2022/03/06 03:58:27;;;;;;;8.05;4.18;;;0.50;99.90;;;;;;5025420;28;20263;-66
2022/03/06 04:00:54;;;;;;;4.20;3.65;;;0.50;99.90;;;;;;5026211;28;20280;-67
2022/03/06 04:03:20;;;;;;;5.80;4.10;;;0.60;99.90;;;;;;5027487;28;20259;-66
2022/03/06 04:05:48;;;;;;;4.45;3.78;;;0.60;99.90;;;;;;5025863;28;20238;-66
2022/03/06 04:08:15;;;;;;;5.18;4.65;;;0.60;99.90;;;;;;5026292;28;20200;-67
2022/03/06 04:10:42;;;;;;;5.95;4.05;;;0.70;99.90;;;;;;5021967;28;20643;-68
2022/03/06 04:13:09;;;;;;;5.53;3.75;;;0.80;99.90;;;;;;5026520;28;20232;-65
2022/03/06 04:15:36;;;;;;;7.47;5.00;;;0.80;99.90;;;;;;5049997;22;20384;-72
2022/03/06 04:18:03;;;;;;;11.45;5.25;;;0.80;99.90;;;;;;5067429;28;20254;-71
2022/03/06 04:20:30;;;;;;;6.85;4.00;;;0.80;99.90;;;;;;5069705;28;20588;-70
2022/03/06 04:22:58;;;;;;;6.40;5.25;;;0.90;99.90;;;;;;5069328;28;20325;-70
2022/03/06 04:25:25;;;;;;;5.20;4.65;;;0.90;99.90;;;;;;5062551;28;20262;-70
2022/03/06 04:27:52;;;;;;;5.78;4.97;;;0.90;99.90;;;;;;5061757;28;20207;-70
2022/03/06 04:30:19;;;;;;;6.25;5.32;;;0.90;99.90;;;;;;5052809;28;20209;-70
2022/03/06 04:32:45;;;;;;;6.65;5.32;;;0.90;99.90;;;;;;5061918;28;20202;-69
2022/03/06 04:35:12;;;;;;;4.03;3.63;;;1.00;99.90;;;;;;5057436;28;20261;-71
2022/03/06 04:37:39;;;;;;;5.03;4.57;;;1.00;99.90;;;;;;5056985;28;20281;-71
2022/03/06 04:40:08;;;;;;;6.32;4.03;;;1.00;99.90;;;;;;5056333;28;20236;-71
2022/03/06 04:42:35;;;;;;;5.40;3.85;;;1.00;99.90;;;;;;5059724;28;21100;-71
2022/03/06 04:45:02;;;;;;;6.70;4.85;;;1.10;99.90;;;;;;5055298;28;20622;-71
2022/03/06 04:47:28;;;;;;;7.80;5.45;;;1.10;99.90;;;;;;5063171;28;20278;-70
2022/03/06 04:49:55;;;;;;;5.47;4.57;;;1.10;99.90;;;;;;5049922;28;20202;-70
2022/03/06 04:52:22;;;;;;;7.75;5.65;;;1.10;99.90;;;;;;5053422;28;20218;-71
2022/03/06 04:54:49;;;;;;;5.97;5.32;;;1.10;99.90;;;;;;5051203;28;20201;-70
2022/03/06 04:57:17;;;;;;;5.32;4.20;;;1.10;99.90;;;;;;5057661;28;20228;-71
2022/03/06 04:59:43;;;;;;;6.07;4.10;;;1.10;99.90;;;;;;5055834;28;20253;-71
2022/03/06 05:02:10;;;;;;;4.88;3.97;;;1.10;99.90;;;;;;5047142;28;20282;-69
2022/03/06 05:04:37;;;;;;;8.45;5.18;;;1.10;99.90;;;;;;5046237;28;20198;-70
2022/03/06 05:07:04;;;;;;;8.90;5.07;;;1.10;99.90;;;;;;5048739;28;20228;-71
2022/03/06 05:09:31;;;;;;;5.47;4.22;;;1.10;99.90;;;;;;5053927;28;20220;-71
2022/03/06 05:11:57;;;;;;;6.78;4.60;;;1.10;99.90;;;;;;5051552;28;20196;-71
2022/03/06 05:14:25;;;;;;;5.90;5.30;;;1.10;99.90;;;;;;5047455;28;20216;-70
2022/03/06 05:16:52;;;;;;;5.38;4.30;;;1.10;99.90;;;;;;5050150;28;20237;-70
2022/03/06 05:19:19;;;;;;;7.47;4.72;;;1.00;99.90;;;;;;5050202;28;20640;-71
2022/03/06 05:21:45;;;;;;;8.95;4.65;;;1.00;99.90;;;;;;5054431;28;20217;-71
2022/03/06 05:24:12;;;;;;;8.20;5.57;;;1.10;99.90;;;;;;5046574;28;20271;-71
2022/03/06 05:26:39;;;;;;;6.60;6.00;;;1.10;99.90;;;;;;5053222;28;20251;-72
2022/03/06 05:29:05;;;;;;;5.63;4.97;;;1.10;99.90;;;;;;5057750;28;20212;-71
2022/03/06 05:31:33;;;;;;;5.68;5.05;;;1.10;99.90;;;;;;5051327;28;20200;-70
2022/03/06 05:34:00;;;;;;;6.78;5.20;;;1.10;99.90;;;;;;5045227;28;20200;-70
2022/03/06 05:36:27;;;;;;;6.45;5.80;;;1.10;99.90;;;;;;5055339;28;20261;-71
2022/03/06 05:38:53;;;;;;;5.40;4.90;;;1.20;99.90;;;;;;5049813;28;20205;-70
2022/03/06 05:41:20;;;;;;;7.10;4.55;;;1.20;99.90;;;;;;5047158;28;20268;-71
2022/03/06 05:43:47;;;;;;;5.28;4.78;;;1.20;99.90;;;;;;5052008;28;20205;-70
2022/03/06 05:46:13;;;;;;;7.10;5.55;;;1.20;99.90;;;;;;5049865;28;20277;-72
2022/03/06 05:48:41;;;;;;;4.95;4.55;;;1.20;99.90;;;;;;5048824;28;20196;-70
2022/03/06 05:51:08;;;;;;;6.45;4.63;;;1.20;99.90;;;;;;5053877;28;20251;-70
2022/03/06 05:53:34;;;;;;;6.22;5.30;;;1.10;99.90;;;;;;5052212;28;20209;-71
2022/03/06 05:56:01;;;;;;;14.98;7.25;;;1.10;99.90;;;;;;5052744;28;20229;-71
2022/03/06 05:58:28;;;;;;;5.53;5.00;;;1.10;99.90;;;;;;5050821;28;20225;-70
2022/03/06 06:00:55;;;;;;;6.05;4.70;;;1.10;99.90;;;;;;5053319;28;20220;-70
2022/03/06 06:03:21;;;;;;;5.68;4.38;;;1.10;99.90;;;;;;5050883;28;20225;-70
2022/03/06 06:05:49;;;;;;;7.65;5.40;;;1.10;99.90;;;;;;5055769;28;20588;-71
2022/03/06 06:08:16;;;;;;;6.20;5.60;;;1.10;99.90;;;;;;5057109;28;20209;-71
2022/03/06 06:10:44;;;;;;;8.85;8.00;;;1.10;99.90;;;;;;5057662;28;20200;-71
2022/03/06 06:13:14;;;;;;;10.02;5.72;;;1.00;99.90;;;;;;5054686;28;20195;-70
2022/03/06 06:15:43;;;;;;;5.75;4.72;;;1.00;99.90;;;;;;5053096;28;20236;-70
2022/03/06 06:18:09;;;;;;;6.20;5.32;;;1.00;99.90;;;;;;5048883;28;20217;-71
2022/03/06 06:20:36;;;;;;;6.05;5.43;;;1.00;99.90;;;;;;5048074;28;20211;-70
2022/03/06 06:23:05;;;;;;;5.05;4.57;;;1.00;99.90;;;;;;5049619;28;20220;-70
2022/03/06 06:25:31;;;;;;;6.40;4.95;;;1.00;99.90;;;;;;5050411;28;20213;-69
2022/03/06 06:27:58;;;;;;;6.10;4.97;;;1.00;99.90;;;;;;5051241;28;20258;-72
2022/03/06 06:30:25;;;;;;;4.57;4.15;;;1.00;99.90;;;;;;5054669;28;20203;-72
2022/03/06 06:32:52;;;;;;;8.15;6.65;;;1.00;99.90;;;;;;5058945;28;20194;-70
2022/03/06 06:35:18;;;;;;;6.90;4.78;;;1.00;99.90;;;;;;5057326;28;20213;-71
2022/03/06 06:37:45;;;;;;;6.57;5.95;;;1.00;99.90;;;;;;5053963;28;20918;-70
2022/03/06 06:40:13;;;;;;;7.72;6.90;;;1.00;99.90;;;;;;5047865;28;20198;-70
2022/03/06 06:42:39;;;;;;;7.20;5.07;;;1.00;99.90;;;;;;5043327;28;20274;-71
2022/03/06 06:45:07;;;;;;;9.52;4.72;;;1.10;99.90;;;;;;5048129;28;20208;-69
2022/03/06 06:47:33;;;;;;;8.30;7.03;;;1.10;99.90;;;;;;5042956;28;20293;-70
2022/03/06 06:50:00;;;;;;;9.60;7.18;;;1.10;99.90;;;;;;5049067;28;20206;-70
2022/03/06 06:52:26;;;;;;;6.00;4.80;;;1.20;99.90;;;;;;5048075;28;20766;-70
2022/03/06 06:54:53;;;;;;;6.13;5.63;;;1.20;99.90;;;;;;5047025;28;20843;-71
2022/03/06 06:57:21;;;;;;;7.95;7.15;;;1.30;99.90;;;;;;5052982;28;20222;-70
2022/03/06 06:59:48;;;;;;;13.57;5.53;;;1.30;99.90;;;;;;5048742;28;20289;-71
2022/03/06 07:02:15;;;;;;;7.65;4.95;;;1.30;99.90;;;;;;5055839;28;20217;-71
2022/03/06 07:04:41;;;;;;;6.57;5.25;;;1.40;99.90;;;;;;5054288;28;20202;-70
2022/03/06 07:07:08;;;;;;;9.52;6.50;;;1.40;99.90;;;;;;5057358;28;20233;-70
2022/03/06 07:09:35;;;;;;;9.70;6.22;;;1.50;99.90;;;;;;5056071;28;20213;-70
2022/03/06 07:12:03;;;;;;;7.18;6.53;;;1.50;99.90;;;;;;5050672;28;20202;-70
2022/03/06 07:14:31;;;;;;;4.57;4.18;;;1.60;99.90;;;;;;5047100;28;20194;-72
2022/03/06 07:16:58;;;;;;;9.55;4.72;;;1.70;99.90;;;;;;5043561;28;20286;-70
2022/03/06 07:19:25;;;;;;;6.18;4.70;;;1.80;99.90;;;;;;5053040;28;20206;-71
2022/03/06 07:21:52;;;;;;;7.03;4.88;;;1.90;99.90;;;;;;5052340;28;20198;-71
2022/03/06 07:24:19;;;;;;;7.10;5.90;;;1.90;99.90;;;;;;5056666;28;20698;-70
2022/03/06 07:26:45;;;;;;;8.57;5.63;;;2.00;99.90;;;;;;5053115;28;20274;-71
2022/03/06 07:29:12;;;;;;;8.18;4.90;;;2.10;99.90;;;;;;5055203;28;20213;-70
2022/03/06 07:31:40;;;;;;;6.32;5.00;;;2.10;99.90;;;;;;5056050;28;20205;-70
2022/03/06 07:34:07;;;;;;;5.93;5.05;;;2.20;99.90;;;;;;5046746;28;20209;-70
2022/03/06 07:36:34;;;;;;;6.50;4.68;;;2.30;99.90;;;;;;5053840;28;20784;-71
2022/03/06 07:39:01;;;;;;;5.63;4.53;;;2.40;99.90;;;;;;5045035;28;20206;-70
2022/03/06 07:41:27;;;;;;;9.48;6.65;;;2.40;99.90;;;;;;5054318;28;20252;-70
2022/03/06 07:43:54;;;;;;;7.68;5.40;;;2.50;99.90;;;;;;5043085;28;20402;-70
2022/03/06 07:46:21;;;;;;;6.63;5.82;;;2.60;99.90;;;;;;5043228;28;20280;-70
2022/03/06 07:48:48;;;;;;;13.32;6.32;;;2.70;99.90;;;;;;5046342;28;20236;-64
2022/03/06 07:51:15;;;;;;;7.25;6.30;;;2.80;99.90;;;;;;5046947;28;20229;-72
2022/03/06 07:53:42;;;;;;;8.07;6.18;;;2.90;99.90;;;;;;5048272;28;20724;-72
2022/03/06 07:56:08;;;;;;;7.75;7.03;;;3.00;99.90;;;;;;5055572;28;20789;-71
2022/03/06 07:58:35;;;;;;;8.63;5.28;;;3.00;99.90;;;;;;5060158;28;20201;-72
2022/03/06 08:01:02;;;;;;;6.03;5.43;;;2.90;99.90;;;;;;5058628;28;20201;-73
2022/03/06 08:03:28;;;;;;;6.55;5.30;;;2.90;99.90;;;;;;5050341;28;20642;-71
2022/03/06 08:05:56;;;;;;;5.85;5.25;;;2.90;99.90;;;;;;5050056;28;20226;-70
2022/03/06 08:08:23;;;;;;;6.80;6.07;;;2.80;99.90;;;;;;5053426;28;20206;-68
2022/03/06 08:10:50;;;;;;;8.00;5.40;;;2.60;99.90;;;;;;5060585;28;21152;-72
2022/03/06 08:13:17;;;;;;;6.38;5.70;;;2.50;99.90;;;;;;5047218;28;20221;-69
2022/03/06 08:15:43;;;;;;;10.38;5.78;;;2.40;99.90;;;;;;5059208;28;20238;-70
2022/03/06 08:18:10;;;;;;;6.20;4.97;;;2.40;99.90;;;;;;5063606;28;20256;-70
2022/03/06 08:20:37;;;;;;;4.95;3.88;;;2.50;99.90;;;;;;5048925;28;20213;-70
2022/03/06 08:23:05;;;;;;;6.75;4.65;;;2.50;99.90;;;;;;5056311;28;20639;-70
2022/03/06 08:25:32;;;;;;;8.75;4.57;;;2.60;99.90;;;;;;5055954;28;20204;-70
2022/03/06 08:27:58;;;;;;;8.52;5.38;;;2.60;99.90;;;;;;5052247;28;20210;-70
2022/03/06 08:30:25;;;;;;;13.02;6.53;;;2.70;99.90;;;;;;5054283;28;20235;-72
2022/03/06 08:32:52;;;;;;;6.88;6.10;;;2.80;99.90;;;;;;5050440;28;20243;-69
2022/03/06 08:35:19;;;;;;;5.85;4.63;;;3.10;99.90;;;;;;5047357;28;20205;-70
2022/03/06 08:37:45;;;;;;;5.13;4.60;;;3.40;99.90;;;;;;5055054;28;20697;-70
2022/03/06 08:40:13;;;;;;;5.65;5.07;;;3.80;99.90;;;;;;5057629;28;20205;-69
2022/03/06 08:42:40;;;;;;;6.80;3.90;;;4.00;99.90;;;;;;5053167;28;20225;-69
2022/03/06 08:45:07;;;;;;;6.68;5.95;;;4.30;99.90;;;;;;5050644;28;20206;-68
2022/03/06 08:47:34;;;;;;;8.65;6.38;;;4.40;99.90;;;;;;5058525;28;20348;-68
2022/03/06 08:50:01;;;;;;;7.15;6.45;;;4.60;99.90;;;;;;5055021;28;20234;-68
2022/03/06 08:52:28;;;;;;;6.25;5.63;;;4.70;99.90;;;;;;5058986;28;20690;-70
2022/03/06 08:54:54;;;;;;;8.35;7.53;;;4.90;99.90;;;;;;5043330;28;20216;-69
2022/03/06 08:57:23;;;;;;;8.35;5.95;;;5.20;99.90;;;;;;5048290;28;20234;-70
2022/03/06 08:59:50;;;;;;;8.82;6.72;;;5.40;99.90;;;;;;5056500;28;20295;-70
2022/03/06 09:02:17;;;;;;;10.20;6.65;;;5.70;99.90;;;;;;5044160;28;20208;-69
2022/03/06 09:04:44;;;;;;;7.40;5.97;;;5.90;99.90;;;;;;5059951;28;20559;-68
2022/03/06 09:07:10;;;;;;;13.00;7.45;;;6.00;99.90;;;;;;5050272;28;20225;-69
2022/03/06 09:09:37;;;;;;;9.20;7.32;;;6.10;99.90;;;;;;5055480;28;20209;-68
2022/03/06 09:12:04;;;;;;;9.38;7.40;;;6.10;99.90;;;;;;5048499;28;20266;-69
2022/03/06 09:14:32;;;;;;;11.55;7.53;;;6.10;99.90;;;;;;5042795;28;20204;-70
2022/03/06 09:17:00;;;;;;;8.25;7.43;;;6.30;99.90;;;;;;5050644;28;20239;-69
2022/03/06 09:19:26;;;;;;;8.38;6.38;;;6.40;99.90;;;;;;5048617;28;20678;-70
2022/03/06 09:21:54;;;;;;;10.30;7.70;;;6.60;99.90;;;;;;5049083;28;20201;-68
2022/03/06 09:24:20;;;;;;;10.10;7.65;;;6.70;99.90;;;;;;5049301;28;20225;-69
2022/03/06 09:26:47;;;;;;;12.07;8.75;;;6.90;99.90;;;;;;5049101;28;20446;-67
2022/03/06 09:29:14;;;;;;;11.88;7.70;;;7.10;99.90;;;;;;5050436;28;20214;-68
2022/03/06 09:31:43;;;;;;;8.98;7.15;;;7.30;99.90;;;;;;5041945;28;20674;-68
2022/03/06 09:34:10;;;;;;;6.88;5.65;;;7.50;99.90;;;;;;5044913;28;20235;-67
2022/03/06 09:36:37;;;;;;;9.57;7.70;;;7.70;99.90;;;;;;5044501;28;20252;-68
2022/03/06 09:39:04;;;;;;;9.07;7.78;;;7.80;99.90;;;;;;5050052;28;20213;-69
2022/03/06 09:41:31;;;;;;;10.50;7.57;;;8.10;99.90;;;;;;5044520;28;20255;-69
2022/03/06 09:43:58;;;;;;;10.63;9.17;;;8.40;99.90;;;;;;5048989;28;20506;-69
2022/03/06 09:46:26;;;;;;;10.40;6.33;;;8.60;99.90;;;;;;5049771;28;20534;-69
2022/03/06 09:48:54;;;;;;;8.27;6.50;;;8.70;99.90;;;;;;5050826;28;20446;-69
2022/03/06 09:51:22;;;;;;;5.80;5.20;;;8.80;99.90;;;;;;5050439;28;20517;-68
2022/03/06 09:53:49;;;;;;;12.90;6.60;;;8.90;99.90;;;;;;5049899;28;20539;-68
2022/03/06 09:56:15;;;;;;;8.93;6.90;;;8.80;99.90;;;;;;5048989;28;21062;-68
2022/03/06 09:58:42;;;;;;;8.40;7.60;;;8.80;99.90;;;;;;5049737;28;20948;-68
2022/03/06 10:01:09;;;;;;;7.33;6.53;;;8.80;99.90;;;;;;5049200;28;20521;-69
2022/03/06 10:03:36;;;;;;;7.20;5.80;;;8.80;99.90;;;;;;5049461;28;20509;-69
2022/03/06 10:06:07;;;;;;;11.43;7.20;;;8.90;99.90;;;;;;5058619;28;20618;-68
2022/03/06 10:08:35;;;;;;;9.77;6.83;;;9.00;99.90;;;;;;5051235;28;20467;-69
2022/03/06 10:11:03;;;;;;;11.13;7.80;;;9.00;99.90;;;;;;5052063;28;20898;-68
2022/03/06 10:13:32;;;;;;;5.90;4.80;;;9.10;99.90;;;;;;5055696;28;21004;-68
2022/03/06 10:16:05;;;;;;;7.63;6.30;;;9.20;99.90;;;;;;5053580;28;20565;-68
2022/03/06 10:18:34;;;;;;;8.90;6.40;;;9.20;99.90;;;;;;5066681;28;20449;-69
2022/03/06 10:21:14;;;;;;;8.50;7.40;;;9.20;99.90;;;;;;5051237;28;20498;-68
2022/03/06 10:23:41;;;;;;;6.93;5.87;;;9.20;99.90;;;;;;5051466;28;20471;-68
2022/03/06 10:26:09;;;;;;;6.57;5.97;;;9.30;99.70;;;;;;5047674;28;20502;-69
2022/03/06 10:28:44;;;;;;;8.37;6.27;;;9.40;99.10;;;;;;5050626;28;20535;-70
2022/03/06 10:31:11;;;;;;;8.53;5.90;;;9.40;99.00;;;;;;5059196;28;20523;-68
2022/03/06 10:33:38;;;;;;;10.13;6.20;;;9.50;98.90;;;;;;5065309;28;20436;-69
2022/03/06 10:36:08;;;;;;;7.63;5.63;;;9.70;98.20;;;;;;5063381;28;20678;-68
2022/03/06 10:38:36;;;;;;;9.80;5.97;;;10.00;97.80;;;;;;5062664;28;20456;-69
2022/03/06 10:41:11;;;;;;;6.17;5.57;;;10.30;97.70;;;;;;5052346;28;21152;-69
2022/03/06 10:43:38;;;;;;;8.17;6.47;;;10.70;96.60;;;;;;5050460;28;20494;-69
2022/03/06 10:46:10;;;;;;;8.57;6.20;;;10.70;96.00;;;;;;5059350;28;20494;-69
2022/03/06 10:48:37;;;;;;;8.67;6.83;;;10.80;95.30;;;;;;5049906;28;20513;-69
2022/03/06 10:51:09;;;;;;;7.40;6.80;;;10.70;95.40;;;;;;5049325;28;20452;-69
2022/03/06 10:53:35;;;;;;;7.40;5.60;;;10.80;95.70;;;;;;5061821;28;20455;-69
2022/03/06 10:56:13;;;;;;;9.33;6.77;;;11.00;95.10;;;;;;5050675;28;20467;-68
2022/03/06 10:58:42;;;;;;;10.97;5.87;;;11.30;94.50;;;;;;5048304;28;20455;-69
2022/03/06 11:01:09;;;;;;;9.53;5.90;;;11.40;93.70;;;;;;5059390;28;20448;-68
2022/03/06 11:03:36;;;;;;;7.33;6.00;;;11.40;93.60;;;;;;5056378;28;20480;-68
2022/03/06 11:06:04;;;;;;;8.40;6.00;;;11.40;92.50;;;;;;5054540;28;20985;-69
2022/03/06 11:08:34;;;;;;;8.63;6.30;;;11.30;92.00;;;;;;5055687;28;20448;-69
2022/03/06 11:11:01;;;;;;;9.17;6.87;;;11.20;92.30;;;;;;5049860;28;20565;-69
2022/03/06 11:13:29;;;;;;;8.27;6.67;;;11.10;92.20;;;;;;5048251;28;20529;-69
2022/03/06 11:15:57;;;;;;;8.20;5.93;;;11.20;92.60;;;;;;5046710;28;20578;-69
2022/03/06 11:18:24;;;;;;;7.67;6.87;;;11.30;92.80;;;;;;5052179;28;20521;-68
2022/03/06 11:20:51;;;;;;;6.90;6.20;;;11.50;91.40;;;;;;5052484;28;20527;-69
2022/03/06 11:23:27;;;;;;;8.97;5.53;;;11.40;91.40;;;;;;5054074;28;20483;-68
2022/03/06 11:26:12;;;;;;;6.87;6.17;;;11.60;91.60;;;;;;5051274;28;20998;-68
2022/03/06 11:29:03;;;;;;;8.47;6.43;;;11.90;91.00;;;;;;5052925;28;20443;-68
2022/03/06 11:31:43;;;;;;;12.23;6.27;;;12.40;90.30;;;;;;5051849;28;20459;-68
2022/03/06 11:34:11;;;;;;;6.67;5.20;;;12.80;90.70;;;;;;5049772;28;20440;-69
2022/03/06 11:36:46;;;;;;;7.80;5.90;;;13.40;89.60;;;;;;5053927;28;20502;-68
2022/03/06 11:39:15;;;;;;;12.80;6.13;;;13.90;87.60;;;;;;5052943;28;20455;-72
2022/03/06 11:41:43;;;;;;;6.50;5.33;;;14.50;90.50;;;;;;5054115;28;20891;-68
2022/03/06 11:44:32;;;;;;;7.23;5.97;;;15.00;88.40;;;;;;5053329;28;20487;-69
2022/03/06 11:46:59;;;;;;;8.73;6.20;;;15.50;87.10;;;;;;5052877;28;20500;-66
2022/03/06 11:49:34;;;;;;;8.67;6.60;;;15.90;85.10;;;;;;5050073;28;20471;-64
2022/03/06 11:52:01;;;;;;;9.83;7.97;;;16.30;83.20;;;;;;5049538;28;20539;-65
2022/03/06 11:54:42;;;;;;;9.83;7.03;;;16.70;81.80;;;;;;5058345;28;21008;-64
2022/03/06 11:57:10;;;;;;;10.33;7.23;;;16.50;79.60;;;;;;5057451;28;20562;-64
2022/03/06 11:59:44;;;;;;;10.13;7.70;;;16.20;80.70;;;;;;5061791;28;20513;-65
2022/03/06 12:02:19;;;;;;;8.00;7.20;;;16.80;80.50;;;;;;5062860;28;20985;-69
2022/03/06 12:04:47;;;;;;;8.77;7.03;;;17.80;80.20;;;;;;5047224;28;20594;-70
2022/03/06 12:07:16;;;;;;;11.67;7.40;;;18.70;79.10;;;;;;5044866;28;21046;-68
2022/03/06 12:09:45;;;;;;;17.10;8.30;;;18.50;77.10;;;;;;5051170;28;20448;-67
2022/03/06 12:12:14;;;;;;;8.03;7.23;;;17.60;75.60;;;;;;5049211;28;20444;-68
2022/03/06 12:14:42;;;;;;;9.50;8.07;;;16.30;74.80;;;;;;5053560;28;20428;-66
2022/03/06 12:17:34;;;;;;;9.27;8.00;;;15.20;74.60;;;;;;5065028;28;20533;-68
2022/03/06 12:20:26;;;;;;;8.50;6.83;;;14.40;75.10;;;;;;5043129;28;21435;-68
2022/03/06 12:23:06;;;;;;;9.57;7.80;;;13.40;74.50;;;;;;5040338;28;20479;-67
2022/03/06 12:25:38;;;;;;;9.57;7.73;;;12.70;75.90;;;;;;5046122;28;20491;-67
2022/03/06 12:28:41;;;;;;;8.80;7.00;;;12.20;77.50;;;;;;5052533;28;20440;-68
2022/03/06 12:31:33;;;;;;;8.80;6.90;;;12.00;77.90;;;;;;5058127;28;20506;-67
2022/03/06 12:34:02;;;;;;;11.00;7.50;;;11.80;79.00;;;;;;5050614;28;20487;-67
2022/03/06 12:36:30;;;;;;;11.70;8.20;;;11.70;79.00;;;;;;5047841;28;20468;-67
2022/03/06 12:39:03;;;;;;;7.77;6.80;;;11.60;79.80;;;;;;5042147;28;20453;-68
2022/03/06 12:41:31;;;;;;;12.20;6.97;;;11.60;79.60;;;;;;5052780;28;20445;-67
2022/03/06 12:44:01;;;;;;;11.23;7.03;;;11.40;76.60;;;;;;5057178;28;20552;-66
2022/03/06 12:46:28;;;;;;;7.13;6.43;;;11.20;77.00;;;;;;5058036;28;20479;-69
2022/03/06 12:48:55;;;;;;;7.17;6.50;;;11.20;77.60;;;;;;5045975;28;20521;-67
2022/03/06 12:51:33;;;;;;;7.83;6.30;;;11.70;77.10;;;;;;5048622;28;20830;-68
2022/03/06 12:54:01;;;;;;;5.83;5.03;;;12.00;75.20;;;;;;5062410;28;20519;-70
2022/03/06 12:56:38;;;;;;;11.90;6.97;;;11.80;75.80;;;;;;5052701;28;20475;-69
2022/03/06 12:59:10;;;;;;;8.50;6.10;;;11.90;74.90;;;;;;5048715;28;20455;-68